createdAt,value
2023-06-04T00:02:19.571Z,98518.22
2023-06-04T00:04:46.611Z,98519.59
2023-06-04T00:07:14.020Z,98523.03
2023-06-04T00:09:42.261Z,98520.28
2023-06-04T00:12:09.235Z,98526.47
2023-06-04T00:14:36.081Z,98531.38
2023-06-04T00:17:02.951Z,98527.38
2023-06-04T00:19:29.624Z,98533.09
2023-06-04T00:21:57.564Z,98533.34
2023-06-04T00:24:24.116Z,98520.31
2023-06-04T00:26:50.703Z,98522.47
2023-06-04T00:29:17.278Z,98515.97
2023-06-04T00:31:44.114Z,98513.59
2023-06-04T00:34:14.327Z,98525.00
2023-06-04T00:36:42.100Z,98509.56
2023-06-04T00:39:09.489Z,98522.25
2023-06-04T00:41:36.794Z,98525.13
2023-06-04T00:44:03.725Z,98530.50
2023-06-04T00:46:32.363Z,98536.59
2023-06-04T00:48:59.347Z,98531.44
2023-06-04T00:51:27.067Z,98547.34
2023-06-04T00:53:54.122Z,98541.91
2023-06-04T00:56:20.827Z,98539.00
2023-06-04T00:58:47.726Z,98544.38
2023-06-04T01:01:26.648Z,98542.06
2023-06-04T01:03:56.626Z,98550.09
2023-06-04T01:06:33.869Z,98548.88
2023-06-04T01:09:01.420Z,98548.75
2023-06-04T01:11:35.699Z,98547.16
2023-06-04T01:14:04.192Z,98548.06
2023-06-04T01:16:37.407Z,98547.41
2023-06-04T01:19:14.349Z,98546.72
2023-06-04T01:21:41.163Z,98549.66
2023-06-04T01:24:09.345Z,98550.75
2023-06-04T01:26:36.326Z,98556.47
2023-06-04T01:29:03.769Z,98548.28
2023-06-04T01:31:33.916Z,98552.53
2023-06-04T01:34:01.150Z,98544.31
2023-06-04T01:36:28.141Z,98544.50
2023-06-04T01:38:56.319Z,98550.75
2023-06-04T01:41:23.234Z,98549.72
2023-06-04T01:43:50.502Z,98546.19
2023-06-04T01:46:17.626Z,98548.28
2023-06-04T01:48:44.424Z,98545.53
2023-06-04T01:51:11.245Z,98550.66
2023-06-04T01:53:39.384Z,98544.41
2023-06-04T01:56:06.125Z,98549.38
2023-06-04T01:58:33.503Z,98546.88
2023-06-04T02:01:01.689Z,98553.69
2023-06-04T02:03:28.940Z,98548.06
2023-06-04T02:05:55.751Z,98555.44
2023-06-04T02:08:22.340Z,98546.06
2023-06-04T02:10:49.754Z,98547.06
2023-06-04T02:13:17.436Z,98551.38
2023-06-04T02:15:44.025Z,98548.34
2023-06-04T02:18:18.510Z,98557.28
2023-06-04T02:20:46.650Z,98545.41
2023-06-04T02:23:14.774Z,98541.88
2023-06-04T02:25:41.615Z,98549.28
2023-06-04T02:28:09.261Z,98550.06
2023-06-04T02:30:35.899Z,98549.13
2023-06-04T02:33:02.520Z,98548.66
2023-06-04T02:35:29.524Z,98552.31
2023-06-04T02:37:59.773Z,98550.53
2023-06-04T02:40:26.903Z,98553.88
2023-06-04T02:42:54.805Z,98554.00
2023-06-04T02:45:21.795Z,98555.50
2023-06-04T02:47:48.899Z,98551.16
2023-06-04T02:50:18.950Z,98555.81
2023-06-04T02:52:45.824Z,98561.31
2023-06-04T02:55:13.959Z,98558.06
2023-06-04T02:57:46.192Z,98554.75
2023-06-04T03:00:14.858Z,98558.66
2023-06-04T03:02:47.332Z,98555.97
2023-06-04T03:05:15.861Z,98563.59
2023-06-04T03:07:44.754Z,98562.34
2023-06-04T03:10:13.166Z,98563.53
2023-06-04T03:12:40.174Z,98566.63
2023-06-04T03:15:08.696Z,98559.53
2023-06-04T03:17:35.558Z,98562.56
2023-06-04T03:20:02.471Z,98569.13
2023-06-04T03:22:29.483Z,98574.78
2023-06-04T03:24:56.419Z,98573.28
2023-06-04T03:27:23.406Z,98572.88
2023-06-04T03:29:50.219Z,98581.63
2023-06-04T03:32:17.299Z,98585.97
2023-06-04T03:34:44.648Z,98585.81
2023-06-04T03:37:12.403Z,98589.19
2023-06-04T03:39:38.989Z,98592.22
2023-06-04T03:42:06.491Z,98585.97
2023-06-04T03:44:33.130Z,98584.84
2023-06-04T03:46:59.868Z,98591.91
2023-06-04T03:49:26.793Z,98588.72
2023-06-04T03:51:53.342Z,98587.72
2023-06-04T03:54:20.053Z,98594.50
2023-06-04T03:56:47.631Z,98594.19
2023-06-04T03:59:14.218Z,98601.56
2023-06-04T04:01:41.339Z,98593.38
2023-06-04T04:04:08.216Z,98599.00
2023-06-04T04:06:35.077Z,98602.06
2023-06-04T04:09:01.919Z,98611.72
2023-06-04T04:11:28.633Z,98607.69
2023-06-04T04:13:55.207Z,98606.41
2023-06-04T04:16:21.778Z,98602.03
2023-06-04T04:18:48.586Z,98605.78
2023-06-04T04:21:15.545Z,98615.53
2023-06-04T04:23:42.271Z,98613.00
2023-06-04T04:26:11.629Z,98614.09
2023-06-04T04:28:39.493Z,98614.72
2023-06-04T04:31:07.892Z,98619.56
2023-06-04T04:33:38.139Z,98618.28
2023-06-04T04:36:04.784Z,98627.75
2023-06-04T04:38:37.070Z,98615.03
2023-06-04T04:41:04.094Z,98624.53
2023-06-04T04:43:39.245Z,98622.22
2023-06-04T04:46:08.593Z,98625.88
2023-06-04T04:48:35.697Z,98622.59
2023-06-04T04:51:03.740Z,98624.03
2023-06-04T04:53:30.373Z,98627.09
2023-06-04T04:55:58.503Z,98631.09
2023-06-04T04:58:25.075Z,98632.47
2023-06-04T05:00:51.729Z,98629.09
2023-06-04T05:03:18.605Z,98622.03
2023-06-04T05:05:45.348Z,98630.63
2023-06-04T05:08:12.527Z,98621.59
2023-06-04T05:10:39.025Z,98634.84
2023-06-04T05:13:07.697Z,98631.28
2023-06-04T05:15:37.404Z,98628.97
2023-06-04T05:18:05.622Z,98635.44
2023-06-04T05:20:32.555Z,98637.63
2023-06-04T05:23:00.495Z,98637.34
2023-06-04T05:25:29.892Z,98635.19
2023-06-04T05:27:59.411Z,98644.75
2023-06-04T05:30:26.374Z,98647.13
2023-06-04T05:32:54.697Z,98655.97
2023-06-04T05:35:22.899Z,98649.34
2023-06-04T05:37:54.828Z,98651.44
2023-06-04T05:40:23.581Z,98657.06
2023-06-04T05:42:50.346Z,98649.97
2023-06-04T05:45:17.369Z,98658.09
2023-06-04T05:47:44.254Z,98664.22
2023-06-04T05:50:11.613Z,98660.41
2023-06-04T05:52:39.165Z,98663.00
2023-06-04T05:55:09.024Z,98658.56
2023-06-04T05:57:35.977Z,98663.84
2023-06-04T06:00:03.857Z,98675.19
2023-06-04T06:02:34.151Z,98663.84
2023-06-04T06:05:00.777Z,98666.00
2023-06-04T06:07:27.746Z,98675.41
2023-06-04T06:09:54.982Z,98670.31
2023-06-04T06:12:21.767Z,98669.34
2023-06-04T06:14:49.373Z,98677.81
2023-06-04T06:17:16.098Z,98670.22
2023-06-04T06:19:42.879Z,98679.50
2023-06-04T06:22:09.496Z,98680.94
2023-06-04T06:24:36.082Z,98680.75
2023-06-04T06:27:03.186Z,98673.69
2023-06-04T06:29:29.663Z,98679.84
2023-06-04T06:31:56.733Z,98678.66
2023-06-04T06:34:24.966Z,98686.00
2023-06-04T06:36:51.664Z,98683.47
2023-06-04T06:39:18.513Z,98685.88
2023-06-04T06:41:46.298Z,98691.59
2023-06-04T06:44:12.821Z,98688.69
2023-06-04T06:46:39.614Z,98689.84
2023-06-04T06:49:06.397Z,98682.56
2023-06-04T06:51:33.345Z,98699.94
2023-06-04T06:53:59.946Z,98696.06
2023-06-04T06:56:27.226Z,98689.91
2023-06-04T06:58:56.304Z,98694.28
2023-06-04T07:01:22.924Z,98694.19
2023-06-04T07:03:49.662Z,98687.13
2023-06-04T07:06:17.187Z,98691.94
2023-06-04T07:08:44.818Z,98682.53
2023-06-04T07:11:14.830Z,98682.44
2023-06-04T07:13:41.576Z,98686.91
2023-06-04T07:16:08.199Z,98688.22
2023-06-04T07:18:34.727Z,98694.88
2023-06-04T07:21:02.572Z,98695.88
2023-06-04T07:23:29.168Z,98695.56
2023-06-04T07:25:57.675Z,98697.53
2023-06-04T07:28:25.210Z,98693.09
2023-06-04T07:30:52.299Z,98697.13
2023-06-04T07:33:18.757Z,98695.38
2023-06-04T07:35:45.495Z,98691.63
2023-06-04T07:38:13.470Z,98688.44
2023-06-04T07:40:40.002Z,98694.22
2023-06-04T07:43:06.757Z,98689.03
2023-06-04T07:45:35.890Z,98683.75
2023-06-04T07:48:03.223Z,98689.13
2023-06-04T07:50:29.779Z,98690.09
2023-06-04T07:52:56.332Z,98696.06
2023-06-04T07:55:23.318Z,98684.34
2023-06-04T07:57:50.158Z,98679.28
2023-06-04T08:00:18.865Z,98684.56
2023-06-04T08:02:46.826Z,98679.03
2023-06-04T08:05:15.138Z,98673.38
2023-06-04T08:07:42.188Z,98671.03
2023-06-04T08:10:12.568Z,98677.06
2023-06-04T08:12:39.127Z,98669.94
2023-06-04T08:15:06.941Z,98676.34
2023-06-04T08:17:33.969Z,98665.16
2023-06-04T08:20:02.923Z,98673.44
2023-06-04T08:22:30.242Z,98668.78
2023-06-04T08:24:57.174Z,98668.16
2023-06-04T08:27:26.061Z,98672.75
2023-06-04T08:29:53.584Z,98664.53
2023-06-04T08:32:20.146Z,98666.53
2023-06-04T08:34:46.670Z,98677.00
2023-06-04T08:37:13.474Z,98669.84
2023-06-04T08:39:40.124Z,98670.31
2023-06-04T08:42:11.024Z,98671.44
2023-06-04T08:44:37.730Z,98667.00
2023-06-04T08:47:12.527Z,98663.91
2023-06-04T08:49:42.200Z,98663.63
2023-06-04T08:52:08.853Z,98666.09
2023-06-04T08:54:36.172Z,98664.38
2023-06-04T08:57:03.754Z,98668.84
2023-06-04T08:59:30.958Z,98663.13
2023-06-04T09:01:58.563Z,98668.06
2023-06-04T09:04:25.681Z,98661.69
2023-06-04T09:06:54.799Z,98661.41
2023-06-04T09:09:23.263Z,98662.94
2023-06-04T09:11:54.513Z,98658.41
2023-06-04T09:14:21.669Z,98667.06
2023-06-04T09:16:54.687Z,98666.16
2023-06-04T09:19:22.187Z,98667.91
2023-06-04T09:21:55.589Z,98660.97
2023-06-04T09:24:24.762Z,98663.47
2023-06-04T09:26:52.548Z,98667.41
2023-06-04T09:29:19.721Z,98669.00
2023-06-04T09:31:48.283Z,98669.66
2023-06-04T09:34:18.398Z,98665.84
2023-06-04T09:36:45.240Z,98659.63
2023-06-04T09:39:18.398Z,98661.53
2023-06-04T09:41:45.458Z,98661.75
2023-06-04T09:44:13.447Z,98669.28
2023-06-04T09:46:40.941Z,98651.91
2023-06-04T09:49:07.931Z,98649.56
2023-06-04T09:51:34.981Z,98643.69
2023-06-04T09:54:03.321Z,98642.56
2023-06-04T09:56:30.437Z,98654.53
2023-06-04T09:59:01.703Z,98656.91
2023-06-04T10:01:31.765Z,98652.91
2023-06-04T10:04:04.215Z,98649.03
2023-06-04T10:06:35.202Z,98648.31
2023-06-04T10:09:07.602Z,98643.97
2023-06-04T10:11:48.067Z,98642.78
2023-06-04T10:14:24.108Z,98645.63
2023-06-04T10:16:52.266Z,98653.16
2023-06-04T10:19:20.494Z,98648.75
2023-06-04T10:21:47.594Z,98645.97
2023-06-04T10:24:18.814Z,98643.59
2023-06-04T10:26:47.578Z,98636.47
2023-06-04T10:29:15.806Z,98637.25
2023-06-04T10:31:42.859Z,98635.56
2023-06-04T10:34:11.178Z,98624.75
2023-06-04T10:36:46.613Z,98632.41
2023-06-04T10:39:14.196Z,98630.84
2023-06-04T10:41:40.915Z,98626.91
2023-06-04T10:44:08.012Z,98626.94
2023-06-04T10:46:42.616Z,98627.72
2023-06-04T10:49:12.699Z,98623.72
2023-06-04T10:51:39.373Z,98628.47
2023-06-04T10:54:06.861Z,98626.47
2023-06-04T10:56:38.569Z,98635.25
2023-06-04T10:59:16.497Z,98638.41
2023-06-04T11:01:44.040Z,98630.88
2023-06-04T11:04:27.265Z,98636.44
2023-06-04T11:07:10.925Z,98622.94
2023-06-04T11:09:58.495Z,98629.66
2023-06-04T11:12:25.356Z,98626.06
2023-06-04T11:15:00.861Z,98624.47
2023-06-04T11:17:30.968Z,98616.88
2023-06-04T11:19:57.611Z,98622.03
2023-06-04T11:22:26.734Z,98628.81
2023-06-04T11:25:02.726Z,98631.56
2023-06-04T11:27:36.673Z,98634.75
2023-06-04T11:30:04.482Z,98626.88
2023-06-04T11:32:32.523Z,98626.09
2023-06-04T11:35:08.334Z,98626.09
2023-06-04T11:37:37.390Z,98615.75
2023-06-04T11:40:09.736Z,98625.25
2023-06-04T11:42:44.148Z,98618.16
2023-06-04T11:45:16.033Z,98620.53
2023-06-04T11:47:46.671Z,98620.94
2023-06-04T11:50:13.569Z,98616.16
2023-06-04T11:52:41.762Z,98618.13
2023-06-04T11:55:13.729Z,98620.41
2023-06-04T11:57:41.318Z,98617.19
2023-06-04T12:00:11.626Z,98612.75
2023-06-04T12:02:38.525Z,98610.63
2023-06-04T12:05:16.098Z,98619.31
2023-06-04T12:07:42.882Z,98608.19
2023-06-04T12:10:10.102Z,98602.63
2023-06-04T12:12:36.713Z,98605.03
2023-06-04T12:15:05.016Z,98603.78
2023-06-04T12:17:32.662Z,98601.06
2023-06-04T12:20:01.958Z,98598.03
2023-06-04T12:22:28.954Z,98601.59
2023-06-04T12:24:57.557Z,98600.28
2023-06-04T12:27:26.755Z,98599.78
2023-06-04T12:30:08.460Z,98596.22
2023-06-04T12:32:37.761Z,98592.13
2023-06-04T12:35:04.919Z,98600.13
2023-06-04T12:37:31.719Z,98594.66
2023-06-04T12:39:58.231Z,98593.84
2023-06-04T12:42:28.218Z,98596.22
2023-06-04T12:44:55.223Z,98590.59
2023-06-04T12:47:22.609Z,98588.81
2023-06-04T12:49:49.391Z,98597.03
2023-06-04T12:52:18.031Z,98591.44
2023-06-04T12:54:44.822Z,98596.59
2023-06-04T12:57:11.466Z,98594.38
2023-06-04T12:59:37.959Z,98588.38
2023-06-04T13:02:04.784Z,98588.06
2023-06-04T13:04:31.272Z,98577.78
2023-06-04T13:07:00.494Z,98581.38
2023-06-04T13:09:29.793Z,98573.78
2023-06-04T13:11:56.795Z,98571.81
2023-06-04T13:14:23.264Z,98579.59
2023-06-04T13:16:50.233Z,98573.69
2023-06-04T13:19:18.828Z,98573.66
2023-06-04T13:21:45.557Z,98575.94
2023-06-04T13:24:12.130Z,98580.03
2023-06-04T13:26:40.217Z,98585.09
2023-06-04T13:29:07.027Z,98584.97
2023-06-04T13:31:33.678Z,98579.44
2023-06-04T13:34:02.511Z,98578.56
2023-06-04T13:36:33.677Z,98580.97
2023-06-04T13:39:00.401Z,98575.38
2023-06-04T13:41:27.672Z,98579.56
2023-06-04T13:43:54.287Z,98571.66
2023-06-04T13:46:21.505Z,98572.16
2023-06-04T13:48:48.109Z,98584.00
2023-06-04T13:51:14.654Z,98583.59
2023-06-04T13:53:41.651Z,98579.22
2023-06-04T13:56:09.169Z,98579.16
2023-06-04T13:58:36.131Z,98580.34
2023-06-04T14:01:02.808Z,98575.22
2023-06-04T14:03:29.422Z,98571.22
2023-06-04T14:05:56.347Z,98571.22
2023-06-04T14:08:23.830Z,98563.78
2023-06-04T14:10:52.913Z,98568.50
2023-06-04T14:13:19.742Z,98557.28
2023-06-04T14:15:47.921Z,98561.94
2023-06-04T14:18:14.449Z,98570.38
2023-06-04T14:20:43.216Z,98563.69
2023-06-04T14:23:10.354Z,98562.44
2023-06-04T14:25:38.101Z,98557.63
2023-06-04T14:28:04.860Z,98560.97
2023-06-04T14:30:31.470Z,98564.06
2023-06-04T14:32:58.059Z,98549.69
2023-06-04T14:35:24.678Z,98543.91
2023-06-04T14:37:51.206Z,98554.75
2023-06-04T14:40:17.844Z,98546.91
2023-06-04T14:42:44.633Z,98547.31
2023-06-04T14:45:11.653Z,98552.53
2023-06-04T14:47:38.886Z,98550.56
2023-06-04T14:50:07.198Z,98546.38
2023-06-04T14:52:33.720Z,98540.31
2023-06-04T14:55:00.338Z,98534.34
2023-06-04T14:57:27.133Z,98540.00
2023-06-04T14:59:53.873Z,98531.75
2023-06-04T15:02:21.758Z,98528.13
2023-06-04T15:04:48.668Z,98531.22
2023-06-04T15:07:15.217Z,98526.44
2023-06-04T15:09:41.857Z,98534.50
2023-06-04T15:12:08.453Z,98527.16
2023-06-04T15:14:35.651Z,98528.16
2023-06-04T15:17:05.252Z,98520.03
2023-06-04T15:19:34.087Z,98525.72
2023-06-04T15:22:02.097Z,98530.06
2023-06-04T15:24:28.861Z,98520.97
2023-06-04T15:26:55.418Z,98526.19
2023-06-04T15:29:23.270Z,98520.44
2023-06-04T15:31:51.228Z,98525.94
2023-06-04T15:34:18.253Z,98520.88
2023-06-04T15:36:45.059Z,98521.97
2023-06-04T15:39:11.802Z,98528.63
2023-06-04T15:41:38.330Z,98516.84
2023-06-04T15:44:05.142Z,98517.84
2023-06-04T15:46:31.817Z,98516.09
2023-06-04T15:48:58.672Z,98516.81
2023-06-04T15:51:26.646Z,98509.94
2023-06-04T15:53:53.404Z,98504.88
2023-06-04T15:56:21.109Z,98496.28
2023-06-04T15:58:47.687Z,98499.06
2023-06-04T16:01:14.382Z,98498.03
2023-06-04T16:03:41.428Z,98495.50
2023-06-04T16:06:08.460Z,98489.78
2023-06-04T16:08:35.286Z,98501.47
2023-06-04T16:11:01.815Z,98493.50
2023-06-04T16:13:28.274Z,98496.94
2023-06-04T16:15:56.081Z,98498.13
2023-06-04T16:18:24.566Z,98489.72
2023-06-04T16:20:51.613Z,98481.97
2023-06-04T16:23:18.470Z,98482.16
2023-06-04T16:25:46.924Z,98493.66
2023-06-04T16:28:13.690Z,98494.50
2023-06-04T16:30:40.840Z,98492.41
2023-06-04T16:33:08.396Z,98495.34
2023-06-04T16:35:34.926Z,98492.38
2023-06-04T16:38:03.557Z,98486.53
2023-06-04T16:40:30.482Z,98490.84
2023-06-04T16:42:57.140Z,98488.34
2023-06-04T16:45:23.707Z,98482.06
2023-06-04T16:47:51.139Z,98480.47
2023-06-04T16:50:19.976Z,98473.84
2023-06-04T16:52:46.484Z,98480.13
2023-06-04T16:55:15.994Z,98479.22
2023-06-04T16:57:42.995Z,98475.84
2023-06-04T17:00:21.340Z,98476.59
2023-06-04T17:02:52.837Z,98485.88
2023-06-04T17:05:24.987Z,98474.56
2023-06-04T17:07:52.693Z,98488.59
2023-06-04T17:10:19.422Z,98479.28
2023-06-04T17:12:46.351Z,98489.63
2023-06-04T17:15:13.077Z,98491.41
2023-06-04T17:17:39.714Z,98486.94
2023-06-04T17:20:07.105Z,98482.31
2023-06-04T17:22:33.676Z,98486.91
2023-06-04T17:25:00.244Z,98477.13
2023-06-04T17:27:27.050Z,98479.16
2023-06-04T17:29:53.635Z,98478.75
2023-06-04T17:32:20.626Z,98482.44
2023-06-04T17:34:47.250Z,98487.94
2023-06-04T17:37:14.759Z,98485.63
2023-06-04T17:39:41.486Z,98482.47
2023-06-04T17:42:08.230Z,98479.25
2023-06-04T17:44:34.860Z,98486.00
2023-06-04T17:47:05.303Z,98484.81
2023-06-04T17:49:33.980Z,98483.59
2023-06-04T17:52:00.870Z,98489.84
2023-06-04T17:54:27.745Z,98486.69
2023-06-04T17:56:54.484Z,98491.31
2023-06-04T17:59:21.014Z,98484.25
2023-06-04T18:01:47.552Z,98493.81
2023-06-04T18:04:15.345Z,98487.09
2023-06-04T18:06:42.269Z,98499.00
2023-06-04T18:09:09.110Z,98491.88
2023-06-04T18:11:35.750Z,98491.50
2023-06-04T18:14:04.405Z,98502.22
2023-06-04T18:16:31.183Z,98500.56
2023-06-04T18:18:57.723Z,98506.09
2023-06-04T18:21:24.426Z,98509.25
2023-06-04T18:23:54.287Z,98511.25
2023-06-04T18:26:21.800Z,98505.69
2023-06-04T18:28:49.545Z,98512.38
2023-06-04T18:31:16.926Z,98510.78
2023-06-04T18:34:02.594Z,98522.66
2023-06-04T18:36:30.518Z,98513.84
2023-06-04T18:38:57.154Z,98513.78
2023-06-04T18:41:23.954Z,98520.06
2023-06-04T18:43:51.283Z,98512.91
2023-06-04T18:46:19.542Z,98513.63
2023-06-04T18:48:48.105Z,98515.16
2023-06-04T18:51:15.203Z,98515.91
2023-06-04T18:53:43.993Z,98516.66
2023-06-04T18:56:10.870Z,98518.16
2023-06-04T18:58:37.443Z,98518.13
2023-06-04T19:01:03.996Z,98517.28
2023-06-04T19:03:30.781Z,98518.75
2023-06-04T19:05:57.665Z,98520.72
2023-06-04T19:08:24.396Z,98523.78
2023-06-04T19:10:53.231Z,98515.41
2023-06-04T19:13:19.855Z,98519.31
2023-06-04T19:15:47.416Z,98523.19
2023-06-04T19:18:13.980Z,98525.88
2023-06-04T19:20:42.772Z,98527.38
2023-06-04T19:23:09.333Z,98528.50
2023-06-04T19:25:36.150Z,98528.81
2023-06-04T19:28:04.784Z,98530.75
2023-06-04T19:30:32.309Z,98538.22
2023-06-04T19:32:59.569Z,98543.69
2023-06-04T19:35:26.181Z,98545.63
2023-06-04T19:37:52.762Z,98548.34
2023-06-04T19:40:19.709Z,98554.59
2023-06-04T19:42:46.682Z,98549.41
2023-06-04T19:45:13.594Z,98552.50
2023-06-04T19:47:40.512Z,98560.31
2023-06-04T19:50:08.294Z,98562.63
2023-06-04T19:52:34.758Z,98564.13
2023-06-04T19:55:01.602Z,98566.44
2023-06-04T19:57:28.099Z,98562.78
2023-06-04T19:59:55.100Z,98569.41
2023-06-04T20:02:22.820Z,98575.31
2023-06-04T20:04:53.045Z,98567.72
2023-06-04T20:07:20.823Z,98573.16
2023-06-04T20:09:47.562Z,98574.22
2023-06-04T20:12:16.016Z,98576.13
2023-06-04T20:14:42.932Z,98585.53
2023-06-04T20:17:09.744Z,98577.56
2023-06-04T20:19:36.487Z,98571.16
2023-06-04T20:22:04.533Z,98581.41
2023-06-04T20:24:31.789Z,98588.88
2023-06-04T20:26:58.559Z,98583.56
2023-06-04T20:29:25.275Z,98590.59
2023-06-04T20:31:51.807Z,98585.66
2023-06-04T20:34:18.396Z,98586.03
2023-06-04T20:36:44.992Z,98582.34
2023-06-04T20:39:12.102Z,98586.56
2023-06-04T20:41:38.717Z,98589.19
2023-06-04T20:44:05.755Z,98598.56
2023-06-04T20:46:32.523Z,98591.69
2023-06-04T20:48:59.330Z,98588.84
2023-06-04T20:51:28.412Z,98594.66
2023-06-04T20:53:54.991Z,98592.56
2023-06-04T20:56:22.014Z,98593.66
2023-06-04T20:58:49.221Z,98595.91
2023-06-04T21:01:18.965Z,98589.09
2023-06-04T21:03:46.525Z,98601.56
2023-06-04T21:06:14.962Z,98594.72
2023-06-04T21:08:43.296Z,98594.28
2023-06-04T21:11:09.971Z,98603.72
2023-06-04T21:13:36.938Z,98596.16
2023-06-04T21:16:03.885Z,98596.47
2023-06-04T21:18:30.545Z,98597.19
2023-06-04T21:20:57.025Z,98590.81
2023-06-04T21:23:23.831Z,98598.56
2023-06-04T21:25:51.430Z,98594.13
2023-06-04T21:28:18.150Z,98597.09
2023-06-04T21:30:45.850Z,98602.06
2023-06-04T21:33:12.485Z,98606.69
2023-06-04T21:35:40.775Z,98599.53
2023-06-04T21:38:09.474Z,98600.22
2023-06-04T21:40:38.094Z,98602.47
2023-06-04T21:43:04.925Z,98602.75
2023-06-04T21:45:32.238Z,98605.41
2023-06-04T21:48:00.333Z,98603.81
2023-06-04T21:50:27.742Z,98613.66
2023-06-04T21:52:54.661Z,98608.78
2023-06-04T21:55:21.367Z,98614.19
2023-06-04T21:57:48.035Z,98609.41
2023-06-04T22:00:16.865Z,98608.84
2023-06-04T22:02:44.845Z,98609.84
2023-06-04T22:05:13.631Z,98610.63
2023-06-04T22:07:40.711Z,98607.41
2023-06-04T22:10:08.438Z,98617.06
2023-06-04T22:12:35.340Z,98612.63
2023-06-04T22:15:01.946Z,98607.81
2023-06-04T22:17:30.733Z,98614.03
2023-06-04T22:19:57.535Z,98612.44
2023-06-04T22:22:24.339Z,98604.06
2023-06-04T22:24:52.369Z,98610.72
2023-06-04T22:27:19.109Z,98609.94
2023-06-04T22:29:45.930Z,98611.53
2023-06-04T22:32:13.500Z,98604.28
2023-06-04T22:34:40.064Z,98601.81
2023-06-04T22:37:06.815Z,98604.09
2023-06-04T22:39:35.246Z,98602.94
2023-06-04T22:42:02.737Z,98607.09
2023-06-04T22:44:31.048Z,98602.19
2023-06-04T22:46:57.893Z,98604.47
2023-06-04T22:49:24.718Z,98606.34
2023-06-04T22:51:51.451Z,98609.09
2023-06-04T22:54:18.056Z,98606.78
2023-06-04T22:56:44.696Z,98608.28
2023-06-04T22:59:11.269Z,98606.59
2023-06-04T23:01:37.896Z,98608.19
2023-06-04T23:04:04.848Z,98609.69
2023-06-04T23:06:32.100Z,98607.41
2023-06-04T23:08:58.889Z,98605.59
2023-06-04T23:11:26.282Z,98601.13
2023-06-04T23:13:52.891Z,98599.44
2023-06-04T23:16:19.483Z,98606.91
2023-06-04T23:18:48.446Z,98600.84
2023-06-04T23:21:14.924Z,98595.13
2023-06-04T23:23:41.563Z,98592.72
2023-06-04T23:26:08.203Z,98593.97
2023-06-04T23:28:34.775Z,98591.00
2023-06-04T23:31:01.538Z,98594.78
2023-06-04T23:33:28.090Z,98590.78
2023-06-04T23:35:54.910Z,98601.78
2023-06-04T23:38:21.548Z,98595.84
2023-06-04T23:40:48.150Z,98601.53
2023-06-04T23:43:15.963Z,98594.22
2023-06-04T23:45:43.998Z,98592.03
2023-06-04T23:48:10.694Z,98590.88
2023-06-04T23:50:37.434Z,98595.81
2023-06-04T23:53:05.870Z,98588.84
2023-06-04T23:55:32.402Z,98588.47
2023-06-04T23:57:59.578Z,98590.88
